Time;durP1;ratioP1;P1;durP2;ratioP2;P2;SDS_P1;SDS_P2;PMS_P1;PMS_P2;Temp;Humidity;BMP_temperature;BMP_pressure;BME280_temperature;BME280_humidity;BME280_pressure;Samples;Min_cycle;Max_cycle;Signal;HPM_P1;HPM_P2
2023/09/04 00:00:44;;;;;;;313.00;272.32;;;;;;;23.19;77.45;99477.69;2496619;27;20488;-76
2023/09/04 00:00:58;;;;;;;397.20;354.43;;;;;;;23.17;77.55;99479.69;352377;28;1589;-75
2023/09/04 00:01:08;;;;;;;391.35;349.23;;;;;;;23.17;77.38;99480.50;353044;28;954;-75
2023/09/04 00:01:18;;;;;;;390.23;348.00;;;;;;;23.17;77.49;99477.00;349747;28;1344;-75
2023/09/04 00:01:29;;;;;;;394.50;352.10;;;;;;;23.18;77.76;99478.69;347299;28;1246;-75
2023/09/04 00:01:39;;;;;;;402.17;359.48;;;;;;;23.20;77.21;99474.03;345216;28;1187;-75
2023/09/04 00:01:50;;;;;;;409.27;366.30;;;;;;;23.20;77.28;99479.38;347458;28;1497;-75
2023/09/04 00:02:00;;;;;;;405.52;362.65;;;;;;;23.20;77.42;99479.38;347391;28;1384;-75
2023/09/04 00:02:11;;;;;;;398.60;355.97;;;;;;;23.21;77.36;99481.91;348701;28;1155;-75
2023/09/04 00:02:22;;;;;;;391.10;348.73;;;;;;;23.22;77.09;99477.41;348304;28;2044;-75
2023/09/04 00:02:33;;;;;;;403.02;360.45;;;;;;;23.22;77.26;99475.59;346017;28;884;-75
2023/09/04 00:02:43;;;;;;;403.30;360.80;;;;;;;23.21;77.38;99475.72;346055;28;860;-75
2023/09/04 00:02:53;;;;;;;398.65;356.38;;;;;;;23.20;77.25;99474.03;348451;28;1382;-75
2023/09/04 00:03:04;;;;;;;389.23;347.17;;;;;;;23.20;77.37;99468.69;345836;28;1304;-75
2023/09/04 00:03:15;;;;;;;394.08;351.88;;;;;;;23.20;77.19;99476.72;345762;28;1682;-75
2023/09/04 00:03:25;;;;;;;401.02;358.55;;;;;;;23.20;77.19;99471.38;345885;28;1108;-75
2023/09/04 00:03:36;;;;;;;403.33;360.73;;;;;;;23.19;77.23;99475.03;344650;28;1211;-75
2023/09/04 00:03:46;;;;;;;396.80;354.45;;;;;;;23.17;77.29;99475.19;344390;28;4010;-75
2023/09/04 00:03:56;;;;;;;391.03;348.80;;;;;;;23.15;77.32;99471.81;343862;28;3135;-75
2023/09/04 00:04:07;;;;;;;388.40;346.30;;;;;;;23.13;77.48;99473.78;346213;28;5167;-75
2023/09/04 00:04:18;;;;;;;399.38;356.65;;;;;;;23.13;77.29;99472.94;343974;28;3124;-75
2023/09/04 00:04:28;;;;;;;401.00;358.35;;;;;;;23.15;77.64;99476.31;345095;28;3327;-75
2023/09/04 00:04:38;;;;;;;409.30;366.17;;;;;;;23.15;77.36;99471.81;347201;28;1253;-75
2023/09/04 00:04:49;;;;;;;397.83;355.27;;;;;;;23.15;77.38;99470.97;348642;28;1030;-75
2023/09/04 00:04:59;;;;;;;399.33;356.50;;;;;;;23.15;77.68;99471.81;345929;28;926;-75
2023/09/04 00:05:10;;;;;;;394.20;351.63;;;;;;;23.16;77.52;99472.66;344721;28;970;-75
2023/09/04 00:05:20;;;;;;;397.50;355.00;;;;;;;23.14;77.85;99470.13;344362;28;1394;-75
2023/09/04 00:05:34;;;;;;;397.03;354.63;;;;;;;23.14;77.74;99467.47;346099;28;1192;-75
2023/09/04 00:05:44;;;;;;;393.00;350.65;;;;;;;23.15;77.70;99471.81;344727;28;1688;-75
2023/09/04 00:05:55;;;;;;;396.40;353.97;;;;;;;23.14;77.61;99463.94;344832;28;3257;-75
2023/09/04 00:06:05;;;;;;;401.20;358.70;;;;;;;23.14;77.67;99471.97;344470;28;1350;-75
2023/09/04 00:06:16;;;;;;;398.05;355.65;;;;;;;23.14;78.03;99466.63;344727;28;963;-75
2023/09/04 00:06:26;;;;;;;398.60;356.07;;;;;;;23.13;77.70;99467.59;347453;28;1447;-75
2023/09/04 00:06:36;;;;;;;395.13;352.77;;;;;;;23.13;78.04;99463.09;346405;28;1301;-75
2023/09/04 00:06:47;;;;;;;398.80;356.40;;;;;;;23.15;77.88;99460.28;344661;28;1219;-75
2023/09/04 00:06:57;;;;;;;397.97;355.70;;;;;;;23.15;78.10;99465.63;344097;28;1225;-75
2023/09/04 00:07:07;;;;;;;394.90;352.75;;;;;;;23.16;77.87;99467.31;343709;28;1334;-75
2023/09/04 00:07:19;;;;;;;400.83;358.40;;;;;;;23.15;77.76;99461.13;341979;28;1219;-75
2023/09/04 00:07:29;;;;;;;398.63;356.15;;;;;;;23.16;77.29;99467.31;340758;28;1571;-76
2023/09/04 00:07:40;;;;;;;398.45;355.95;;;;;;;23.14;77.12;99458.59;337964;29;1380;-75
2023/09/04 00:07:50;;;;;;;391.57;349.37;;;;;;;23.13;77.43;99457.75;339074;29;1382;-75
2023/09/04 00:08:01;;;;;;;389.60;347.52;;;;;;;23.15;77.51;99465.63;338000;29;929;-75
2023/09/04 00:08:11;;;;;;;394.67;352.17;;;;;;;23.14;77.84;99458.59;338165;29;1655;-75
2023/09/04 00:08:22;;;;;;;391.33;348.90;;;;;;;23.16;77.58;99464.63;338806;29;1275;-75
2023/09/04 00:08:32;;;;;;;394.47;351.87;;;;;;;23.15;77.45;99460.28;339394;29;1193;-75
2023/09/04 00:08:42;;;;;;;394.40;352.00;;;;;;;23.16;77.52;99467.31;336517;29;1306;-75
2023/09/04 00:08:57;;;;;;;396.77;354.33;;;;;;;23.16;77.50;99461.97;333407;29;1757;-75
2023/09/04 00:09:08;;;;;;;392.45;350.42;;;;;;;23.16;77.34;99456.63;332482;29;1500;-75
2023/09/04 00:09:18;;;;;;;388.77;346.77;;;;;;;23.16;77.16;99461.97;333190;29;2157;-75
2023/09/04 00:09:28;;;;;;;390.00;347.90;;;;;;;23.16;76.79;99461.97;332653;29;1468;-75
2023/09/04 00:09:39;;;;;;;393.60;351.33;;;;;;;23.14;77.04;99459.44;331459;29;1349;-75
2023/09/04 00:09:50;;;;;;;392.95;350.75;;;;;;;23.13;77.19;99456.94;331669;29;1385;-75
2023/09/04 00:10:00;;;;;;;392.20;349.92;;;;;;;23.12;77.04;99456.09;329233;30;753;-75
2023/09/04 00:10:11;;;;;;;388.87;346.77;;;;;;;23.13;77.02;99463.09;329506;29;932;-75
2023/09/04 00:10:21;;;;;;;394.20;351.88;;;;;;;23.10;77.21;99454.53;328497;29;1786;-75
2023/09/04 00:10:32;;;;;;;397.90;355.43;;;;;;;23.10;77.46;99462.56;328091;30;837;-75
2023/09/04 00:10:42;;;;;;;402.23;359.67;;;;;;;23.09;77.17;99455.53;325250;30;1465;-75
2023/09/04 00:10:53;;;;;;;394.17;351.83;;;;;;;23.09;77.22;99455.53;324831;30;1663;-75
2023/09/04 00:11:03;;;;;;;390.60;348.50;;;;;;;23.08;77.53;99462.69;324255;30;1349;-75
2023/09/04 00:11:13;;;;;;;389.07;346.97;;;;;;;23.08;77.71;99460.03;321756;30;1307;-75
2023/09/04 00:11:26;;;;;;;396.73;354.42;;;;;;;23.09;77.87;99458.19;322755;30;2119;-74
2023/09/04 00:11:36;;;;;;;392.55;350.33;;;;;;;23.10;77.53;99459.88;318121;30;2226;-74
2023/09/04 00:11:46;;;;;;;392.77;350.47;;;;;;;23.09;77.68;99460.88;316080;31;1345;-75
2023/09/04 00:11:57;;;;;;;399.98;357.45;;;;;;;23.08;77.85;99456.50;319807;30;1705;-75
2023/09/04 00:12:07;;;;;;;404.90;362.17;;;;;;;23.08;77.90;99456.50;320613;30;1206;-75
2023/09/04 00:12:17;;;;;;;407.07;364.30;;;;;;;23.07;77.75;99457.50;319495;30;1472;-75
2023/09/04 00:12:28;;;;;;;397.88;355.38;;;;;;;23.07;77.67;99457.50;316190;30;1534;-75
2023/09/04 00:12:39;;;;;;;390.57;348.33;;;;;;;23.05;77.90;99451.47;314516;31;2018;-75
2023/09/04 00:12:49;;;;;;;389.73;347.38;;;;;;;23.06;77.93;99455.81;315798;31;1995;-75
2023/09/04 00:12:59;;;;;;;392.20;349.77;;;;;;;23.07;77.78;99452.16;315807;31;1209;-75
2023/09/04 00:13:11;;;;;;;397.48;354.85;;;;;;;23.05;78.18;99451.47;312056;31;2373;-75
2023/09/04 00:13:21;;;;;;;399.17;356.65;;;;;;;23.05;78.05;99454.13;311686;31;3345;-75
2023/09/04 00:13:32;;;;;;;399.30;356.77;;;;;;;23.03;78.22;99448.94;314803;31;3535;-75
2023/09/04 00:13:43;;;;;;;398.73;356.25;;;;;;;23.04;78.48;99453.28;314159;31;3292;-75
2023/09/04 00:13:53;;;;;;;397.17;354.53;;;;;;;23.06;78.35;99448.66;314194;31;5415;-75
2023/09/04 00:14:04;;;;;;;400.13;357.42;;;;;;;23.07;78.21;99457.50;313133;31;3475;-75
2023/09/04 00:14:16;;;;;;;406.03;363.23;;;;;;;23.04;77.63;99455.97;310737;31;943;-75
2023/09/04 00:14:26;;;;;;;405.17;362.67;;;;;;;23.04;77.79;99457.78;311591;31;1690;-75
2023/09/04 00:14:36;;;;;;;402.92;360.38;;;;;;;23.05;77.65;99454.13;310355;31;2159;-75
2023/09/04 00:14:47;;;;;;;399.97;357.57;;;;;;;23.03;77.74;99453.44;317277;31;1199;-75
2023/09/04 00:14:57;;;;;;;399.47;356.93;;;;;;;23.01;78.00;99453.59;311180;31;2782;-75
2023/09/04 00:15:08;;;;;;;399.67;357.08;;;;;;;23.03;77.68;99450.78;312440;31;3326;-75
2023/09/04 00:15:19;;;;;;;397.90;355.30;;;;;;;23.05;77.93;99454.13;314903;31;1563;-75
2023/09/04 00:15:29;;;;;;;399.50;357.08;;;;;;;23.04;77.74;99449.78;304099;32;1605;-75
2023/09/04 00:15:39;;;;;;;400.63;358.23;;;;;;;23.04;77.80;99447.13;300509;32;3371;-75
2023/09/04 00:15:55;;;;;;;400.83;358.43;;;;;;;23.06;77.87;99455.81;299348;32;3416;-75
2023/09/04 00:16:05;;;;;;;388.70;346.70;;;;;;;23.07;77.85;99449.50;297805;32;3120;-75
2023/09/04 00:16:15;;;;;;;383.30;341.60;;;;;;;23.08;77.75;99448.50;297968;33;923;-75
2023/09/04 00:16:26;;;;;;;384.80;343.00;;;;;;;23.09;77.78;99448.34;298611;32;2511;-75
2023/09/04 00:16:36;;;;;;;390.83;348.83;;;;;;;23.10;77.24;99452.72;301520;32;2330;-75
2023/09/04 00:16:47;;;;;;;390.70;348.67;;;;;;;23.10;78.07;99446.53;301988;32;1233;-74
2023/09/04 00:16:57;;;;;;;394.13;351.83;;;;;;;23.11;77.89;99448.22;302135;32;2921;-75
2023/09/04 00:17:07;;;;;;;400.20;357.50;;;;;;;23.10;77.46;99446.53;299050;32;3798;-75
2023/09/04 00:17:18;;;;;;;401.53;358.83;;;;;;;23.10;77.48;99443.88;294677;33;1403;-75
2023/09/04 00:17:30;;;;;;;405.17;362.42;;;;;;;23.08;77.80;99449.34;294934;33;4925;-75
2023/09/04 00:17:40;;;;;;;404.35;361.70;;;;;;;23.08;77.74;99445.84;297316;32;4248;-75
2023/09/04 00:17:51;;;;;;;406.40;363.70;;;;;;;23.07;77.62;99453.00;296077;32;4571;-75
2023/09/04 00:18:01;;;;;;;403.42;360.80;;;;;;;23.08;77.67;99445.84;297040;33;877;-75
2023/09/04 00:18:12;;;;;;;399.23;356.87;;;;;;;23.08;77.93;99443.16;296563;33;4568;-75
2023/09/04 00:18:23;;;;;;;398.92;356.70;;;;;;;23.08;77.45;99448.50;296030;33;4281;-75
2023/09/04 00:18:33;;;;;;;399.27;356.97;;;;;;;23.07;77.39;99441.47;297001;33;914;-75
2023/09/04 00:18:44;;;;;;;400.80;358.33;;;;;;;23.06;77.47;99440.66;293032;33;977;-75
2023/09/04 00:18:54;;;;;;;397.70;355.17;;;;;;;23.07;77.36;99445.00;290566;33;3805;-75
2023/09/04 00:19:04;;;;;;;398.30;355.80;;;;;;;23.07;77.46;99446.81;291308;33;4316;-74
2023/09/04 00:19:15;;;;;;;395.65;353.23;;;;;;;23.07;77.53;99441.47;290139;34;884;-74
2023/09/04 00:19:26;;;;;;;397.23;354.83;;;;;;;23.07;77.49;99447.66;286124;34;5690;-74
2023/09/04 00:19:36;;;;;;;393.98;351.60;;;;;;;23.07;77.38;99445.00;284534;34;6874;-74
2023/09/04 00:19:47;;;;;;;396.50;354.03;;;;;;;23.07;77.65;99439.66;287325;34;887;-74
2023/09/04 00:19:57;;;;;;;392.40;350.07;;;;;;;23.08;77.34;99446.69;285028;34;5680;-75
2023/09/04 00:20:08;;;;;;;391.17;348.87;;;;;;;23.10;77.31;99444.69;284155;34;6538;-75
2023/09/04 00:20:19;;;;;;;391.05;348.75;;;;;;;23.10;77.39;99444.69;283851;34;6133;-75
2023/09/04 00:20:29;;;;;;;392.93;350.53;;;;;;;23.10;77.61;99444.69;282595;35;1544;-75
2023/09/04 00:20:40;;;;;;;392.03;349.77;;;;;;;23.12;77.52;99444.56;283585;34;5940;-75
2023/09/04 00:20:52;;;;;;;392.92;350.67;;;;;;;23.10;77.76;99444.69;283483;34;4686;-75
2023/09/04 00:21:03;;;;;;;389.30;347.20;;;;;;;23.10;77.92;99446.53;281664;35;878;-75
2023/09/04 00:21:13;;;;;;;392.80;350.58;;;;;;;23.11;77.95;99448.22;280735;35;5058;-75
2023/09/04 00:21:25;;;;;;;396.92;354.65;;;;;;;23.12;77.69;99449.91;277516;35;7152;-75
2023/09/04 00:21:35;;;;;;;400.92;358.55;;;;;;;23.12;77.62;99449.91;274872;35;7279;-75
2023/09/04 00:21:45;;;;;;;401.35;358.88;;;;;;;23.12;77.97;99449.91;280821;35;1799;-75
2023/09/04 00:21:56;;;;;;;398.33;355.90;;;;;;;23.09;77.79;99447.53;279868;34;9277;-75
2023/09/04 00:22:06;;;;;;;391.93;349.60;;;;;;;23.09;78.04;99451.03;278316;35;8102;-75
2023/09/04 00:22:16;;;;;;;392.95;350.65;;;;;;;23.09;78.36;99448.34;277293;35;824;-75
2023/09/04 00:22:27;;;;;;;396.23;353.93;;;;;;;23.09;78.08;99452.84;275578;35;8508;-75
2023/09/04 00:22:38;;;;;;;394.40;352.17;;;;;;;23.10;78.46;99446.53;273371;35;8477;-75
2023/09/04 00:22:48;;;;;;;394.23;351.93;;;;;;;23.10;78.46;99452.72;272760;35;3269;-74
2023/09/04 00:22:58;;;;;;;398.02;355.63;;;;;;;23.12;78.33;99460.59;273350;35;8130;-75
2023/09/04 00:23:09;;;;;;;402.23;359.50;;;;;;;23.13;78.58;99454.25;268940;36;6588;-75
2023/09/04 00:25:03;;;;;;;370.02;321.16;;;;;;;23.10;78.11;99463.41;2491699;27;20713;-75
2023/09/04 00:25:13;;;;;;;386.37;344.50;;;;;;;23.12;78.04;99460.59;355946;27;1167;-75
2023/09/04 00:25:24;;;;;;;385.10;343.25;;;;;;;23.10;77.63;99460.72;350617;28;1612;-75
2023/09/04 00:25:34;;;;;;;387.57;345.73;;;;;;;23.10;77.89;99457.22;351575;28;1186;-74
2023/09/04 00:25:45;;;;;;;379.30;337.70;;;;;;;23.10;77.84;99458.06;350288;28;838;-75
2023/09/04 00:25:55;;;;;;;383.57;341.87;;;;;;;23.11;77.92;99458.91;348490;28;1339;-75
2023/09/04 00:26:06;;;;;;;380.77;339.30;;;;;;;23.10;77.45;99454.53;348812;28;915;-75
2023/09/04 00:26:16;;;;;;;386.47;344.70;;;;;;;23.10;77.51;99458.06;348511;28;1211;-75
2023/09/04 00:26:27;;;;;;;387.27;345.50;;;;;;;23.09;77.70;99466.22;347835;28;1661;-75
2023/09/04 00:26:37;;;;;;;390.63;348.53;;;;;;;23.09;77.66;99461.72;346062;28;1255;-75
2023/09/04 00:26:48;;;;;;;397.08;354.85;;;;;;;23.09;77.59;99452.84;347376;28;1440;-75
2023/09/04 00:26:58;;;;;;;393.08;350.98;;;;;;;23.08;77.97;99453.84;347001;28;1211;-75
2023/09/04 00:27:09;;;;;;;394.37;352.30;;;;;;;23.07;78.20;99457.50;347241;28;1295;-75
2023/09/04 00:27:19;;;;;;;388.07;346.17;;;;;;;23.08;78.06;99464.53;346203;28;1315;-75
2023/09/04 00:27:30;;;;;;;387.98;346.10;;;;;;;23.09;78.09;99460.88;347288;28;1001;-74
2023/09/04 00:27:40;;;;;;;390.90;348.90;;;;;;;23.08;78.40;99460.03;345479;28;3000;-75
2023/09/04 00:27:51;;;;;;;394.07;352.10;;;;;;;23.10;78.71;99462.56;343067;28;5017;-75
2023/09/04 00:28:01;;;;;;;392.70;350.80;;;;;;;23.09;78.64;99458.19;344869;28;5639;-75
2023/09/04 00:28:13;;;;;;;392.90;350.53;;;;;;;23.09;78.58;99460.88;344727;28;4923;-75
2023/09/04 00:28:24;;;;;;;391.42;349.05;;;;;;;23.11;78.58;99461.56;345455;28;5232;-75
2023/09/04 00:28:34;;;;;;;394.23;351.80;;;;;;;23.10;78.58;99452.72;346204;28;868;-74
2023/09/04 00:28:44;;;;;;;389.40;347.60;;;;;;;23.10;78.58;99457.22;345534;28;1122;-74
2023/09/04 00:28:55;;;;;;;390.50;348.80;;;;;;;23.10;78.58;99460.72;344157;28;1605;-75
2023/09/04 00:29:05;;;;;;;397.27;355.33;;;;;;;23.08;78.75;99459.19;344642;28;1224;-75
2023/09/04 00:29:16;;;;;;;397.03;355.07;;;;;;;23.09;78.65;99459.03;347179;28;1871;-75
2023/09/04 00:29:26;;;;;;;400.45;358.05;;;;;;;23.10;79.03;99462.56;345733;28;1586;-75
2023/09/04 00:29:36;;;;;;;393.40;351.20;;;;;;;23.10;78.74;99462.56;344704;28;1652;-75
2023/09/04 00:29:47;;;;;;;396.23;353.83;;;;;;;23.09;78.88;99460.88;344646;28;3347;-75
2023/09/04 00:29:57;;;;;;;391.30;349.05;;;;;;;23.08;78.82;99456.50;348422;28;1319;-75
2023/09/04 00:30:08;;;;;;;392.60;350.40;;;;;;;23.09;79.26;99458.19;347434;28;843;-75
2023/09/04 00:30:18;;;;;;;386.20;344.23;;;;;;;23.07;78.91;99455.69;345909;28;1281;-75
2023/09/04 00:30:29;;;;;;;391.30;349.25;;;;;;;23.04;79.32;99465.81;344041;28;1485;-74
2023/09/04 00:30:39;;;;;;;390.40;348.37;;;;;;;23.04;79.32;99463.97;344665;28;889;-75
2023/09/04 00:30:50;;;;;;;397.70;355.50;;;;;;;23.05;79.42;99462.16;344874;28;1619;-75
2023/09/04 00:31:00;;;;;;;393.55;351.48;;;;;;;23.07;79.79;99457.50;345773;28;1323;-75
2023/09/04 00:31:11;;;;;;;401.30;358.85;;;;;;;23.07;79.73;99465.50;346238;28;1272;-75
2023/09/04 00:31:21;;;;;;;396.20;353.80;;;;;;;23.06;80.20;99462.00;345805;28;1606;-74
2023/09/04 00:31:32;;;;;;;392.17;350.00;;;;;;;23.07;80.44;99466.34;344540;28;1515;-74
2023/09/04 00:31:42;;;;;;;386.10;344.17;;;;;;;23.08;80.34;99469.88;343384;28;1114;-74
2023/09/04 00:31:52;;;;;;;390.93;348.73;;;;;;;23.08;80.10;99464.53;342987;28;1743;-75
2023/09/04 00:32:03;;;;;;;392.55;350.23;;;;;;;23.09;80.07;99466.22;341950;28;1321;-75
2023/09/04 00:32:13;;;;;;;393.97;351.60;;;;;;;23.09;80.17;99466.22;342042;28;813;-75
2023/09/04 00:32:24;;;;;;;391.90;349.70;;;;;;;23.08;80.39;99464.53;340724;28;1530;-75
2023/09/04 00:32:34;;;;;;;392.73;350.50;;;;;;;23.08;80.31;99469.88;343487;28;821;-75
2023/09/04 00:32:45;;;;;;;389.63;347.52;;;;;;;23.08;80.15;99464.53;340520;29;1365;-75
2023/09/04 00:32:55;;;;;;;385.97;343.93;;;;;;;23.04;80.45;99458.63;339718;29;1424;-75
2023/09/04 00:33:06;;;;;;;390.17;348.13;;;;;;;23.05;80.26;99470.16;337129;29;1741;-75
2023/09/04 00:33:16;;;;;;;390.50;348.40;;;;;;;23.05;80.37;99468.31;340003;28;1830;-75
2023/09/04 00:33:26;;;;;;;386.73;344.83;;;;;;;23.07;80.73;99468.19;337946;29;1422;-75
2023/09/04 00:33:37;;;;;;;380.73;339.00;;;;;;;23.07;80.51;99469.03;340517;28;1648;-75
2023/09/04 00:33:47;;;;;;;379.47;337.73;;;;;;;23.07;80.65;99469.03;340739;29;919;-75
2023/09/04 00:33:58;;;;;;;383.58;341.67;;;;;;;23.08;80.48;99464.53;337945;29;1924;-75
2023/09/04 00:34:09;;;;;;;388.48;346.55;;;;;;;23.08;80.58;99464.53;338146;29;1422;-75
2023/09/04 00:34:19;;;;;;;393.70;351.67;;;;;;;23.09;80.53;99466.22;336705;29;1668;-75
2023/09/04 00:34:30;;;;;;;393.40;351.40;;;;;;;23.10;80.37;99467.91;336689;29;1409;-75
2023/09/04 00:34:40;;;;;;;392.30;350.33;;;;;;;23.09;80.10;99466.22;337953;29;1170;-75
2023/09/04 00:34:51;;;;;;;384.77;343.03;;;;;;;23.07;80.15;99462.84;334323;29;1587;-74
2023/09/04 00:35:01;;;;;;;389.00;347.03;;;;;;;23.07;80.06;99463.69;336223;29;1429;-74
2023/09/04 00:35:13;;;;;;;387.23;345.25;;;;;;;23.08;79.39;99459.19;336976;29;1673;-74
2023/09/04 00:35:24;;;;;;;392.40;350.27;;;;;;;23.08;79.61;99461.84;338379;28;1777;-74
2023/09/04 00:35:35;;;;;;;396.50;354.20;;;;;;;23.08;79.12;99460.03;336820;29;913;-74
2023/09/04 00:35:45;;;;;;;397.23;354.83;;;;;;;23.07;79.16;99463.69;338676;29;2031;-75
2023/09/04 00:35:56;;;;;;;398.00;355.57;;;;;;;23.07;79.47;99462.84;334460;29;2041;-75
2023/09/04 00:36:06;;;;;;;385.87;343.87;;;;;;;23.04;79.37;99458.63;334224;29;906;-75
2023/09/04 00:36:16;;;;;;;385.83;343.88;;;;;;;23.04;79.65;99463.97;334091;29;1555;-75
2023/09/04 00:36:27;;;;;;;383.30;341.37;;;;;;;23.04;79.77;99463.13;330811;29;1518;-76
2023/09/04 00:36:37;;;;;;;390.88;348.73;;;;;;;23.04;80.08;99460.47;329059;29;1270;-75
2023/09/04 00:36:47;;;;;;;391.97;349.77;;;;;;;23.03;79.37;99459.63;327941;30;1571;-75
2023/09/04 00:36:58;;;;;;;399.17;356.67;;;;;;;23.03;79.21;99462.28;326991;29;1863;-75
2023/09/04 00:37:10;;;;;;;402.87;360.27;;;;;;;23.05;79.12;99462.16;324436;30;3845;-75
2023/09/04 00:37:20;;;;;;;402.42;360.05;;;;;;;23.04;78.78;99463.13;321686;30;3375;-75
2023/09/04 00:37:30;;;;;;;393.47;351.37;;;;;;;23.04;78.58;99458.63;325721;30;5320;-75
2023/09/04 00:37:41;;;;;;;391.13;348.83;;;;;;;23.05;78.26;99462.16;323027;30;5633;-75
2023/09/04 00:37:51;;;;;;;391.45;349.02;;;;;;;23.05;78.16;99464.81;322079;30;2623;-74
2023/09/04 00:38:02;;;;;;;400.20;357.50;;;;;;;23.07;78.25;99462.84;319502;30;1252;-75
2023/09/04 00:38:12;;;;;;;399.00;356.70;;;;;;;23.07;78.88;99462.84;320003;30;2732;-75
2023/09/04 00:38:23;;;;;;;400.60;358.30;;;;;;;23.05;78.99;99460.31;319436;30;1848;-75
2023/09/04 00:38:33;;;;;;;392.08;350.08;;;;;;;23.04;79.31;99463.97;315142;31;1374;-75
2023/09/04 00:38:43;;;;;;;392.37;350.10;;;;;;;23.04;79.06;99463.13;314900;31;1504;-75
2023/09/04 00:38:54;;;;;;;389.55;347.17;;;;;;;23.03;79.35;99464.13;313731;31;2660;-75
2023/09/04 00:39:04;;;;;;;384.90;342.67;;;;;;;23.04;79.53;99468.47;310513;31;1925;-75
2023/09/04 00:39:17;;;;;;;383.27;341.35;;;;;;;23.02;79.38;99465.09;312129;31;2521;-75
2023/09/04 00:39:27;;;;;;;386.48;344.58;;;;;;;23.02;79.55;99465.09;308233;31;2980;-75
2023/09/04 00:39:37;;;;;;;391.98;350.10;;;;;;;23.03;79.12;99461.44;305683;32;3126;-75
2023/09/04 00:39:48;;;;;;;392.27;350.30;;;;;;;23.04;79.42;99468.47;308406;32;1790;-75
2023/09/04 00:39:58;;;;;;;391.67;349.57;;;;;;;23.03;80.31;99467.63;306079;32;3819;-75
2023/09/04 00:40:09;;;;;;;388.15;346.05;;;;;;;23.04;80.35;99463.97;305672;31;2883;-75
2023/09/04 00:40:19;;;;;;;388.17;346.13;;;;;;;23.04;80.42;99468.47;307125;32;1060;-75
2023/09/04 00:40:30;;;;;;;391.63;349.63;;;;;;;23.02;79.58;99462.44;306908;32;3655;-75
2023/09/04 00:40:40;;;;;;;386.97;345.10;;;;;;;23.01;79.37;99464.25;306235;31;2433;-75
2023/09/04 00:40:50;;;;;;;382.38;340.70;;;;;;;23.01;79.66;99469.59;307097;32;1621;-75
2023/09/04 00:41:01;;;;;;;377.47;335.87;;;;;;;23.02;79.23;99468.63;305526;32;2322;-75
2023/09/04 00:41:11;;;;;;;385.47;343.57;;;;;;;23.01;79.11;99468.75;303215;32;2947;-75
2023/09/04 00:41:21;;;;;;;394.25;351.90;;;;;;;23.01;79.01;99466.94;299456;32;1475;-75
2023/09/04 00:41:32;;;;;;;403.80;360.97;;;;;;;23.02;78.80;99470.44;295771;33;1707;-75
2023/09/04 00:41:42;;;;;;;405.15;362.23;;;;;;;23.03;79.06;99469.47;296457;33;4858;-75
2023/09/04 00:41:53;;;;;;;402.13;359.30;;;;;;;23.03;79.15;99469.47;296727;32;4287;-75
2023/09/04 00:42:03;;;;;;;399.07;356.60;;;;;;;23.02;79.25;99470.44;299986;32;1364;-75
2023/09/04 00:42:15;;;;;;;402.33;359.70;;;;;;;23.03;79.43;99470.31;296172;33;5085;-75
2023/09/04 00:42:29;;;;;;;396.70;354.40;;;;;;;23.03;79.43;99469.47;295873;33;4362;-75
2023/09/04 00:42:40;;;;;;;393.75;351.63;;;;;;;23.04;79.57;99468.47;295192;33;4315;-75
2023/09/04 00:42:50;;;;;;;387.15;345.30;;;;;;;23.02;79.73;99471.28;296213;33;1550;-75
2023/09/04 00:43:01;;;;;;;384.57;342.77;;;;;;;23.02;79.96;99470.44;292273;33;3004;-75
2023/09/04 00:43:11;;;;;;;382.40;340.60;;;;;;;23.03;79.92;99469.47;292543;33;3543;-75
2023/09/04 00:43:22;;;;;;;389.47;347.50;;;;;;;23.03;80.10;99466.78;292000;33;4162;-75
2023/09/04 00:43:38;;;;;;;393.50;351.40;;;;;;;23.03;80.42;99472.13;293016;33;1613;-75
2023/09/04 00:43:49;;;;;;;397.45;355.17;;;;;;;23.04;80.16;99468.47;290736;34;1222;-75
2023/09/04 00:43:59;;;;;;;396.88;354.70;;;;;;;23.05;80.18;99471.00;286390;34;6687;-75
2023/09/04 00:44:09;;;;;;;396.77;354.60;;;;;;;23.05;80.41;99471.00;285685;34;6104;-75
2023/09/04 00:44:20;;;;;;;396.42;354.35;;;;;;;23.04;80.26;99463.97;287622;34;1288;-75
2023/09/04 00:44:30;;;;;;;395.30;353.20;;;;;;;23.04;80.55;99463.13;284797;34;6890;-75
2023/09/04 00:44:44;;;;;;;396.17;354.03;;;;;;;23.03;80.58;99467.63;284829;34;5140;-75
2023/09/04 00:44:54;;;;;;;394.13;352.05;;;;;;;23.02;80.12;99471.28;281073;34;6615;-75
2023/09/04 00:45:07;;;;;;;393.30;351.30;;;;;;;23.03;79.99;99466.78;279022;35;1328;-75
2023/09/04 00:45:17;;;;;;;386.92;345.15;;;;;;;23.02;79.74;99463.28;276348;35;902;-75
2023/09/04 00:45:28;;;;;;;385.13;343.33;;;;;;;23.02;79.16;99471.28;275592;35;5676;-76
2023/09/04 00:45:38;;;;;;;382.08;340.25;;;;;;;23.02;79.65;99470.44;273587;35;6418;-75
2023/09/04 00:45:48;;;;;;;387.90;345.90;;;;;;;23.03;79.41;99469.47;272329;36;1924;-75
2023/09/04 00:45:59;;;;;;;393.40;351.17;;;;;;;23.02;79.70;99463.28;269896;35;8023;-75
2023/09/04 00:46:09;;;;;;;395.87;353.57;;;;;;;23.03;79.44;99464.13;269737;35;10570;-75
2023/09/04 00:46:20;;;;;;;388.73;346.77;;;;;;;23.03;79.20;99461.44;273744;36;1270;-75
2023/09/04 00:46:30;;;;;;;387.43;345.60;;;;;;;23.03;79.63;99466.78;270935;35;8624;-74
2023/09/04 00:46:40;;;;;;;387.50;345.67;;;;;;;23.03;79.42;99464.13;265995;36;9527;-74
2023/09/04 00:46:51;;;;;;;392.27;350.17;;;;;;;23.03;79.30;99461.44;265425;37;5303;-75
2023/09/04 00:47:01;;;;;;;395.13;352.77;;;;;;;23.03;79.49;99456.94;266058;36;7762;-75
2023/09/04 00:47:14;;;;;;;400.05;357.50;;;;;;;23.05;79.38;99464.81;266930;36;8757;-75
2023/09/04 00:47:24;;;;;;;400.60;358.15;;;;;;;23.02;79.69;99465.94;263497;37;6195;-75
2023/09/04 00:47:35;;;;;;;393.13;351.05;;;;;;;23.01;79.67;99463.41;262288;37;1733;-75
2023/09/04 00:47:45;;;;;;;383.73;342.00;;;;;;;22.99;79.56;99466.25;263687;36;7623;-75
2023/09/04 00:49:52;;;;;;;368.86;320.28;;;;;;;22.95;79.75;99458.69;2492820;27;20479;-75
2023/09/04 00:50:03;;;;;;;390.15;347.77;;;;;;;22.95;79.56;99459.53;353708;27;1721;-75
2023/09/04 00:50:21;;;;;;;391.47;349.00;;;;;;;22.91;79.90;99457.31;349381;28;1378;-75
2023/09/04 00:50:32;;;;;;;391.73;349.63;;;;;;;22.88;79.52;99456.59;347782;28;1339;-75
2023/09/04 00:50:42;;;;;;;391.42;349.58;;;;;;;22.87;79.58;99462.91;347493;28;928;-75
2023/09/04 00:50:52;;;;;;;389.33;347.45;;;;;;;22.87;80.04;99462.91;345106;28;1013;-75
2023/09/04 00:51:03;;;;;;;383.83;342.03;;;;;;;22.89;79.93;99454.78;346222;28;1343;-75
2023/09/04 00:51:13;;;;;;;385.23;343.23;;;;;;;22.91;80.10;99457.31;347599;28;971;-75
2023/09/04 00:51:23;;;;;;;389.02;346.98;;;;;;;22.92;79.71;99453.63;347246;28;1196;-75
2023/09/04 00:51:34;;;;;;;387.83;345.67;;;;;;;22.93;79.93;99460.66;347250;28;1196;-75
2023/09/04 00:51:44;;;;;;;386.42;344.42;;;;;;;22.92;79.87;99454.47;347297;28;1223;-75
2023/09/04 00:51:55;;;;;;;392.00;349.57;;;;;;;22.93;79.87;99460.66;345649;28;1931;-76
2023/09/04 00:52:06;;;;;;;394.70;352.15;;;;;;;22.92;79.84;99457.16;343312;28;1353;-76
2023/09/04 00:52:16;;;;;;;399.10;356.27;;;;;;;22.93;79.90;99463.34;345415;28;1140;-76
2023/09/04 00:52:28;;;;;;;396.88;354.17;;;;;;;22.94;79.79;99462.34;346946;28;1141;-76
2023/09/04 00:52:38;;;;;;;395.10;352.63;;;;;;;22.92;79.92;99456.31;344858;28;909;-76
2023/09/04 00:52:55;;;;;;;389.65;347.52;;;;;;;22.92;79.54;99459.81;344748;28;1240;-76
2023/09/04 00:53:06;;;;;;;392.15;349.95;;;;;;;22.93;79.42;99458.00;344308;28;1425;-76
2023/09/04 00:53:16;;;;;;;398.83;356.27;;;;;;;22.95;79.68;99453.34;348139;28;1283;-76
2023/09/04 00:53:27;;;;;;;391.87;349.63;;;;;;;22.94;79.36;99457.00;347469;28;1660;-76